createdAt,value
2023-04-18T00:05:17.480Z,93.26
2023-04-18T00:15:55.978Z,93.43
2023-04-18T00:26:33.703Z,93.57
2023-04-18T00:31:52.913Z,93.57
2023-04-18T00:42:32.197Z,94.54
2023-04-18T00:47:51.428Z,94.49
2023-04-18T00:58:30.053Z,94.11
2023-04-18T01:03:49.043Z,94.74
2023-04-18T01:09:08.665Z,95.38
2023-04-18T01:14:27.543Z,95.45
2023-04-18T01:25:06.430Z,94.92
2023-04-18T01:30:25.823Z,95.03
2023-04-18T01:41:03.715Z,94.87
2023-04-18T01:46:22.840Z,94.37
2023-04-18T01:51:41.759Z,93.22
2023-04-18T01:57:00.695Z,94.08
2023-04-18T02:07:39.709Z,95.11
2023-04-18T02:12:59.343Z,95.34
2023-04-18T02:23:47.618Z,96.3
2023-04-18T02:28:56.890Z,96.2
2023-04-18T02:39:36.096Z,96.04
2023-04-18T02:50:15.002Z,96.43
2023-04-18T02:55:33.825Z,96.21
2023-04-18T03:06:13.604Z,95.84
2023-04-18T03:11:32.824Z,95.78
2023-04-18T03:22:11.168Z,95.67
2023-04-18T03:32:49.510Z,95.26
2023-04-18T03:38:08.946Z,94.98
2023-04-18T03:48:46.562Z,95.07
2023-04-18T03:54:05.874Z,95.24
2023-04-18T04:04:43.690Z,94.87
2023-04-18T04:10:03.040Z,94.89
2023-04-18T04:20:40.807Z,94.74
2023-04-18T04:31:19.440Z,94.57
2023-04-18T04:36:38.338Z,94.23
2023-04-18T04:47:16.925Z,94.11
2023-04-18T04:57:55.636Z,94.07
2023-04-18T05:03:15.370Z,93.59
2023-04-18T05:13:53.269Z,93.51
2023-04-18T05:19:12.221Z,93.43
2023-04-18T05:29:50.593Z,92.83
2023-04-18T05:35:09.406Z,92.74
2023-04-18T05:45:48.671Z,92.18
2023-04-18T05:56:27.803Z,90.47
2023-04-18T06:01:45.958Z,90.24
2023-04-18T06:12:24.469Z,89.95
2023-04-18T06:17:43.742Z,89.36
2023-04-18T06:28:22.313Z,88.81
2023-04-18T06:39:00.910Z,87.58
2023-04-18T06:49:39.782Z,86.29
2023-04-18T06:54:59.501Z,86.45
2023-04-18T07:05:38.641Z,85.56
2023-04-18T07:10:57.399Z,85.12
2023-04-18T07:21:35.642Z,85.13
2023-04-18T07:32:24.759Z,84.57
2023-04-18T07:37:33.925Z,83.41
2023-04-18T07:48:12.109Z,83.8
2023-04-18T07:58:50.323Z,83.7
2023-04-18T08:04:09.192Z,83.83
2023-04-18T08:14:47.490Z,82.79
2023-04-18T08:20:07.318Z,81.71
2023-04-18T08:30:45.513Z,82.4
2023-04-18T08:36:05.124Z,82.91
2023-04-18T08:41:24.343Z,82.01
2023-04-18T08:46:43.238Z,82.4
2023-04-18T08:57:21.979Z,80.65
2023-04-18T09:02:41.864Z,80.1
2023-04-18T09:13:20.510Z,80.1
2023-04-18T09:18:39.969Z,80.07
2023-04-18T09:23:58.952Z,79.37
2023-04-18T09:29:18.171Z,76.69
2023-04-18T09:45:16.158Z,76.94
2023-04-18T09:55:57.102Z,72.81
2023-04-18T10:01:14.223Z,73.48
2023-04-18T10:11:52.879Z,74.32
2023-04-18T10:17:12.124Z,74.98
2023-04-18T10:22:32.241Z,76.05
2023-04-18T10:27:51.543Z,75.26
2023-04-18T10:38:29.896Z,75.07
2023-04-18T10:43:48.199Z,75.07
2023-04-18T10:54:25.738Z,75.58
2023-04-18T11:05:04.361Z,72.72
2023-04-18T11:10:23.814Z,69.9
2023-04-18T11:21:01.943Z,71.48
2023-04-18T11:26:20.962Z,72.44
2023-04-18T11:36:59.308Z,72.33
2023-04-18T11:42:18.847Z,71.4
2023-04-18T11:52:57.676Z,69.47
2023-04-18T12:03:37.007Z,70.37
2023-04-18T12:08:55.362Z,69.92
2023-04-18T12:19:34.005Z,69.51
2023-04-18T12:24:53.795Z,69.15
2023-04-18T12:35:32.968Z,69.73
2023-04-18T12:51:30.275Z,68.4
2023-04-18T13:02:08.874Z,68.07
2023-04-18T13:07:27.848Z,67.37
2023-04-18T13:19:45.793Z,67.11
2023-04-18T13:23:27.922Z,66.73
2023-04-18T13:28:51.855Z,67.42
2023-04-18T13:34:33.005Z,66.58
2023-04-18T13:45:12.275Z,60.29
2023-04-18T13:50:31.578Z,60.64
2023-04-18T13:55:50.309Z,62.29
2023-04-18T14:01:09.803Z,64.01
2023-04-18T14:11:48.061Z,63.36
2023-04-18T14:17:05.839Z,63.8
2023-04-18T14:27:43.366Z,62.08
2023-04-18T14:33:02.551Z,63.28
2023-04-18T14:43:40.194Z,63.9
2023-04-18T14:48:59.430Z,64.76
2023-04-18T14:54:18.780Z,64.9
2023-04-18T14:59:37.729Z,65.22
2023-04-18T15:10:16.620Z,66.15
2023-04-18T15:15:36.191Z,65.16
2023-04-18T15:26:15.290Z,66.24
2023-04-18T15:42:13.073Z,69.26
2023-04-18T15:52:51.516Z,70.14
2023-04-18T15:58:10.223Z,70.69
2023-04-18T16:08:49.081Z,71
2023-04-18T16:14:08.337Z,71.47
2023-04-18T16:19:27.540Z,72.21
2023-04-18T16:24:47.166Z,72.53
2023-04-18T16:35:26.009Z,72.66
2023-04-18T16:40:44.861Z,72.15
2023-04-18T16:51:23.276Z,73.06
2023-04-18T16:56:42.661Z,73.26
2023-04-18T17:07:29.227Z,73.92
2023-04-18T17:23:19.249Z,75.01
2023-04-18T17:33:57.973Z,75.1
2023-04-18T17:39:17.670Z,75.83
2023-04-18T17:49:55.784Z,75.16
2023-04-18T18:00:34.949Z,75.65
2023-04-18T18:05:54.460Z,76.33
2023-04-18T18:16:32.577Z,76.47
2023-04-18T18:21:51.693Z,76.76
2023-04-18T18:32:29.687Z,77.57
2023-04-18T18:37:48.591Z,78.44
2023-04-18T18:43:08.097Z,78.81
2023-04-18T18:48:27.873Z,78.86
2023-04-18T18:59:06.684Z,79.08
2023-04-18T19:04:25.741Z,78.97
2023-04-18T19:15:03.305Z,79.07
2023-04-18T19:20:22.937Z,79.35
2023-04-18T19:31:01.333Z,79.96
2023-04-18T19:46:59.441Z,80.78
2023-04-18T19:57:37.966Z,81.01
2023-04-18T20:02:57.659Z,80.51
2023-04-18T20:18:56.540Z,81.11
2023-04-18T20:24:16.262Z,81.57
2023-04-18T20:34:54.569Z,82.08
2023-04-18T20:40:12.967Z,82.16
2023-04-18T20:50:51.804Z,82.63
2023-04-18T20:56:11.097Z,82.84
2023-04-18T21:06:49.491Z,83.02
2023-04-18T21:17:27.272Z,83.07
2023-04-18T21:22:46.469Z,83.15
2023-04-18T21:33:25.411Z,83.6
2023-04-18T21:38:44.858Z,83.41
2023-04-18T21:49:24.005Z,83.29
2023-04-18T22:00:03.670Z,83.14
2023-04-18T22:05:22.883Z,83.63
2023-04-18T22:16:01.434Z,83.81
2023-04-18T22:21:20.275Z,83.88
2023-04-18T22:31:57.422Z,84.22
2023-04-18T22:42:38.032Z,84.61
2023-04-18T22:47:55.477Z,84.63
2023-04-18T22:58:34.483Z,84.52
2023-04-18T23:03:53.379Z,84.55
2023-04-18T23:14:32.134Z,84.64
2023-04-18T23:25:11.406Z,84.7
2023-04-18T23:30:31.015Z,84.46
2023-04-18T23:41:09.351Z,84.64
2023-04-18T23:46:28.606Z,84.73
2023-04-18T23:57:06.379Z,84.64
